sensor_id;sensor_type;location;lat;lon;timestamp;temperature;humidity
9057;DHT22;4563;54.756;9.400;2023-05-07T00:01:33;10.90;72.20
9057;DHT22;4563;54.756;9.400;2023-05-07T00:04:00;10.90;72.30
9057;DHT22;4563;54.756;9.400;2023-05-07T00:06:27;10.90;72.30
9057;DHT22;4563;54.756;9.400;2023-05-07T00:08:55;10.90;72.30
9057;DHT22;4563;54.756;9.400;2023-05-07T00:11:23;10.90;72.40
9057;DHT22;4563;54.756;9.400;2023-05-07T00:13:51;10.90;73.10
9057;DHT22;4563;54.756;9.400;2023-05-07T00:16:17;10.90;72.40
9057;DHT22;4563;54.756;9.400;2023-05-07T00:18:44;10.90;72.40
9057;DHT22;4563;54.756;9.400;2023-05-07T00:21:11;10.90;72.30
9057;DHT22;4563;54.756;9.400;2023-05-07T00:23:38;10.90;72.50
9057;DHT22;4563;54.756;9.400;2023-05-07T00:26:05;10.90;72.60
9057;DHT22;4563;54.756;9.400;2023-05-07T00:28:33;10.90;72.60
9057;DHT22;4563;54.756;9.400;2023-05-07T00:31:00;10.90;72.60
9057;DHT22;4563;54.756;9.400;2023-05-07T00:33:26;10.90;72.50
9057;DHT22;4563;54.756;9.400;2023-05-07T00:35:53;11.00;72.70
9057;DHT22;4563;54.756;9.400;2023-05-07T00:38:23;10.90;72.60
9057;DHT22;4563;54.756;9.400;2023-05-07T00:40:50;10.90;72.70
9057;DHT22;4563;54.756;9.400;2023-05-07T00:43:17;10.90;72.70
9057;DHT22;4563;54.756;9.400;2023-05-07T00:45:45;10.90;72.80
9057;DHT22;4563;54.756;9.400;2023-05-07T00:48:12;10.90;72.80
9057;DHT22;4563;54.756;9.400;2023-05-07T00:50:39;11.00;73.00
9057;DHT22;4563;54.756;9.400;2023-05-07T00:53:06;10.90;72.80
9057;DHT22;4563;54.756;9.400;2023-05-07T00:55:35;10.90;72.90
9057;DHT22;4563;54.756;9.400;2023-05-07T00:58:02;10.90;72.90
9057;DHT22;4563;54.756;9.400;2023-05-07T01:00:29;10.90;73.00
9057;DHT22;4563;54.756;9.400;2023-05-07T01:02:57;10.90;72.90
9057;DHT22;4563;54.756;9.400;2023-05-07T01:05:25;10.90;73.00
9057;DHT22;4563;54.756;9.400;2023-05-07T01:07:53;11.00;73.10
9057;DHT22;4563;54.756;9.400;2023-05-07T01:10:21;10.90;73.10
9057;DHT22;4563;54.756;9.400;2023-05-07T01:12:49;10.90;73.10
9057;DHT22;4563;54.756;9.400;2023-05-07T01:15:17;11.00;73.30
9057;DHT22;4563;54.756;9.400;2023-05-07T01:17:44;11.00;73.30
9057;DHT22;4563;54.756;9.400;2023-05-07T01:20:12;11.00;73.20
9057;DHT22;4563;54.756;9.400;2023-05-07T01:22:40;11.00;73.30
9057;DHT22;4563;54.756;9.400;2023-05-07T01:25:09;11.00;73.40
9057;DHT22;4563;54.756;9.400;2023-05-07T01:27:36;11.00;73.30
9057;DHT22;4563;54.756;9.400;2023-05-07T01:30:04;11.00;73.40
9057;DHT22;4563;54.756;9.400;2023-05-07T01:32:38;11.00;73.40
9057;DHT22;4563;54.756;9.400;2023-05-07T01:35:08;11.00;73.40
9057;DHT22;4563;54.756;9.400;2023-05-07T01:37:36;11.00;73.50
9057;DHT22;4563;54.756;9.400;2023-05-07T01:40:06;11.00;73.60
9057;DHT22;4563;54.756;9.400;2023-05-07T01:42:33;11.00;73.50
9057;DHT22;4563;54.756;9.400;2023-05-07T01:45:00;11.10;73.70
9057;DHT22;4563;54.756;9.400;2023-05-07T01:47:27;11.00;73.50
9057;DHT22;4563;54.756;9.400;2023-05-07T01:49:56;11.00;73.60
9057;DHT22;4563;54.756;9.400;2023-05-07T01:52:23;11.00;73.70
9057;DHT22;4563;54.756;9.400;2023-05-07T01:54:50;11.00;73.70
9057;DHT22;4563;54.756;9.400;2023-05-07T01:57:19;11.00;73.70
9057;DHT22;4563;54.756;9.400;2023-05-07T01:59:46;11.10;73.90
9057;DHT22;4563;54.756;9.400;2023-05-07T02:02:13;11.10;73.90
9057;DHT22;4563;54.756;9.400;2023-05-07T02:04:39;11.10;73.90
9057;DHT22;4563;54.756;9.400;2023-05-07T02:07:06;11.10;73.90
9057;DHT22;4563;54.756;9.400;2023-05-07T02:09:33;11.10;74.00
9057;DHT22;4563;54.756;9.400;2023-05-07T02:12:00;11.10;74.00
9057;DHT22;4563;54.756;9.400;2023-05-07T02:14:28;11.10;74.00
9057;DHT22;4563;54.756;9.400;2023-05-07T02:16:55;11.10;74.00
9057;DHT22;4563;54.756;9.400;2023-05-07T02:19:21;11.10;74.10
9057;DHT22;4563;54.756;9.400;2023-05-07T02:21:48;11.10;74.10
9057;DHT22;4563;54.756;9.400;2023-05-07T02:24:15;11.10;74.20
9057;DHT22;4563;54.756;9.400;2023-05-07T02:26:42;11.10;74.20
9057;DHT22;4563;54.756;9.400;2023-05-07T02:29:09;11.20;74.40
9057;DHT22;4563;54.756;9.400;2023-05-07T02:31:39;11.20;74.30
9057;DHT22;4563;54.756;9.400;2023-05-07T02:34:06;11.20;74.30
9057;DHT22;4563;54.756;9.400;2023-05-07T02:36:32;11.20;74.30
9057;DHT22;4563;54.756;9.400;2023-05-07T02:38:59;11.20;74.40
9057;DHT22;4563;54.756;9.400;2023-05-07T02:41:26;11.20;74.40
9057;DHT22;4563;54.756;9.400;2023-05-07T02:43:53;11.20;74.40
9057;DHT22;4563;54.756;9.400;2023-05-07T02:46:20;11.20;74.40
9057;DHT22;4563;54.756;9.400;2023-05-07T02:48:48;11.20;74.40
9057;DHT22;4563;54.756;9.400;2023-05-07T02:51:16;11.20;74.40
9057;DHT22;4563;54.756;9.400;2023-05-07T02:53:43;11.20;74.50
9057;DHT22;4563;54.756;9.400;2023-05-07T02:56:09;11.20;74.50
9057;DHT22;4563;54.756;9.400;2023-05-07T02:58:36;11.20;74.40
9057;DHT22;4563;54.756;9.400;2023-05-07T03:01:04;11.20;74.40
9057;DHT22;4563;54.756;9.400;2023-05-07T03:03:31;11.20;74.30
9057;DHT22;4563;54.756;9.400;2023-05-07T03:06:00;11.20;74.40
9057;DHT22;4563;54.756;9.400;2023-05-07T03:08:27;11.30;74.60
9057;DHT22;4563;54.756;9.400;2023-05-07T03:10:54;11.30;74.50
9057;DHT22;4563;54.756;9.400;2023-05-07T03:13:20;11.30;74.40
9057;DHT22;4563;54.756;9.400;2023-05-07T03:15:47;11.30;74.40
9057;DHT22;4563;54.756;9.400;2023-05-07T03:18:14;11.30;74.40
9057;DHT22;4563;54.756;9.400;2023-05-07T03:20:41;11.30;74.40
9057;DHT22;4563;54.756;9.400;2023-05-07T03:23:09;11.30;74.30
9057;DHT22;4563;54.756;9.400;2023-05-07T03:25:35;11.30;74.30
9057;DHT22;4563;54.756;9.400;2023-05-07T03:28:02;11.30;74.30
9057;DHT22;4563;54.756;9.400;2023-05-07T03:30:29;11.30;74.30
9057;DHT22;4563;54.756;9.400;2023-05-07T03:32:58;11.30;74.30
9057;DHT22;4563;54.756;9.400;2023-05-07T03:35:25;11.30;74.30
9057;DHT22;4563;54.756;9.400;2023-05-07T03:37:51;11.30;74.20
9057;DHT22;4563;54.756;9.400;2023-05-07T03:40:20;11.30;74.30
9057;DHT22;4563;54.756;9.400;2023-05-07T03:42:46;11.30;74.10
9057;DHT22;4563;54.756;9.400;2023-05-07T03:45:13;11.30;74.20
9057;DHT22;4563;54.756;9.400;2023-05-07T03:47:40;11.30;74.20
9057;DHT22;4563;54.756;9.400;2023-05-07T03:50:08;11.30;74.20
9057;DHT22;4563;54.756;9.400;2023-05-07T03:52:35;11.30;74.10
9057;DHT22;4563;54.756;9.400;2023-05-07T03:55:02;11.30;74.10
9057;DHT22;4563;54.756;9.400;2023-05-07T03:57:31;11.30;74.10
9057;DHT22;4563;54.756;9.400;2023-05-07T04:00:00;11.30;74.00
9057;DHT22;4563;54.756;9.400;2023-05-07T04:02:29;11.30;74.10
9057;DHT22;4563;54.756;9.400;2023-05-07T04:04:56;11.40;74.10
9057;DHT22;4563;54.756;9.400;2023-05-07T04:07:22;11.30;73.90
9057;DHT22;4563;54.756;9.400;2023-05-07T04:09:49;11.30;73.90
9057;DHT22;4563;54.756;9.400;2023-05-07T04:12:16;11.30;73.90
9057;DHT22;4563;54.756;9.400;2023-05-07T04:14:44;11.30;73.90
9057;DHT22;4563;54.756;9.400;2023-05-07T04:17:11;11.30;73.90
9057;DHT22;4563;54.756;9.400;2023-05-07T04:19:38;11.30;73.90
9057;DHT22;4563;54.756;9.400;2023-05-07T04:22:05;11.30;73.90
9057;DHT22;4563;54.756;9.400;2023-05-07T04:24:32;11.40;73.90
9057;DHT22;4563;54.756;9.400;2023-05-07T04:26:59;11.40;73.90
9057;DHT22;4563;54.756;9.400;2023-05-07T04:29:26;11.40;73.90
9057;DHT22;4563;54.756;9.400;2023-05-07T04:31:55;11.40;73.80
9057;DHT22;4563;54.756;9.400;2023-05-07T04:34:22;11.40;73.80
9057;DHT22;4563;54.756;9.400;2023-05-07T04:36:49;11.40;73.80
9057;DHT22;4563;54.756;9.400;2023-05-07T04:39:15;11.40;73.80
9057;DHT22;4563;54.756;9.400;2023-05-07T04:41:42;11.40;73.80
9057;DHT22;4563;54.756;9.400;2023-05-07T04:44:09;11.40;73.80
9057;DHT22;4563;54.756;9.400;2023-05-07T04:46:36;11.40;73.80
9057;DHT22;4563;54.756;9.400;2023-05-07T04:49:04;11.40;73.70
9057;DHT22;4563;54.756;9.400;2023-05-07T04:51:31;11.40;73.80
9057;DHT22;4563;54.756;9.400;2023-05-07T04:53:58;11.40;73.70
9057;DHT22;4563;54.756;9.400;2023-05-07T04:56:27;11.40;73.70
9057;DHT22;4563;54.756;9.400;2023-05-07T04:58:55;11.50;73.70
9057;DHT22;4563;54.756;9.400;2023-05-07T05:01:21;11.50;73.70
9057;DHT22;4563;54.756;9.400;2023-05-07T05:03:48;11.50;73.70
9057;DHT22;4563;54.756;9.400;2023-05-07T05:06:16;11.50;73.60
9057;DHT22;4563;54.756;9.400;2023-05-07T05:08:43;11.50;73.50
9057;DHT22;4563;54.756;9.400;2023-05-07T05:11:10;11.50;73.50
9057;DHT22;4563;54.756;9.400;2023-05-07T05:13:36;11.50;73.50
9057;DHT22;4563;54.756;9.400;2023-05-07T05:16:04;11.50;73.40
9057;DHT22;4563;54.756;9.400;2023-05-07T05:18:31;11.50;73.50
9057;DHT22;4563;54.756;9.400;2023-05-07T05:20:58;11.50;73.40
9057;DHT22;4563;54.756;9.400;2023-05-07T05:23:26;11.50;73.40
9057;DHT22;4563;54.756;9.400;2023-05-07T05:25:55;11.50;73.30
9057;DHT22;4563;54.756;9.400;2023-05-07T05:28:23;11.50;73.20
9057;DHT22;4563;54.756;9.400;2023-05-07T05:30:50;11.60;73.30
9057;DHT22;4563;54.756;9.400;2023-05-07T05:33:16;11.50;73.20
9057;DHT22;4563;54.756;9.400;2023-05-07T05:35:43;11.50;73.20
9057;DHT22;4563;54.756;9.400;2023-05-07T05:38:10;11.50;73.20
9057;DHT22;4563;54.756;9.400;2023-05-07T05:40:38;11.60;73.30
9057;DHT22;4563;54.756;9.400;2023-05-07T05:43:05;11.60;73.20
9057;DHT22;4563;54.756;9.400;2023-05-07T05:45:32;11.60;73.20
9057;DHT22;4563;54.756;9.400;2023-05-07T05:47:59;11.60;73.20
9057;DHT22;4563;54.756;9.400;2023-05-07T05:50:26;11.60;73.80
9057;DHT22;4563;54.756;9.400;2023-05-07T05:52:56;11.60;73.20
9057;DHT22;4563;54.756;9.400;2023-05-07T05:55:23;11.60;73.10
9057;DHT22;4563;54.756;9.400;2023-05-07T05:57:51;11.70;73.20
9057;DHT22;4563;54.756;9.400;2023-05-07T06:00:18;11.70;73.20
9057;DHT22;4563;54.756;9.400;2023-05-07T06:02:47;11.70;73.10
9057;DHT22;4563;54.756;9.400;2023-05-07T06:05:14;11.70;73.10
9057;DHT22;4563;54.756;9.400;2023-05-07T06:07:41;11.70;73.10
9057;DHT22;4563;54.756;9.400;2023-05-07T06:10:08;11.70;73.10
9057;DHT22;4563;54.756;9.400;2023-05-07T06:12:35;11.80;73.20
9057;DHT22;4563;54.756;9.400;2023-05-07T06:15:04;11.70;73.10
9057;DHT22;4563;54.756;9.400;2023-05-07T06:17:31;11.80;73.10
9057;DHT22;4563;54.756;9.400;2023-05-07T06:19:57;11.80;73.00
9057;DHT22;4563;54.756;9.400;2023-05-07T06:22:24;11.80;72.90
9057;DHT22;4563;54.756;9.400;2023-05-07T06:24:51;11.80;72.80
9057;DHT22;4563;54.756;9.400;2023-05-07T06:27:18;11.80;72.60
9057;DHT22;4563;54.756;9.400;2023-05-07T06:29:45;11.90;72.70
9057;DHT22;4563;54.756;9.400;2023-05-07T06:32:13;11.90;72.70
9057;DHT22;4563;54.756;9.400;2023-05-07T06:34:40;11.90;72.70
9057;DHT22;4563;54.756;9.400;2023-05-07T06:37:10;11.90;72.70
9057;DHT22;4563;54.756;9.400;2023-05-07T06:39:40;11.90;72.70
9057;DHT22;4563;54.756;9.400;2023-05-07T06:42:07;12.00;72.80
9057;DHT22;4563;54.756;9.400;2023-05-07T06:44:34;12.00;72.60
9057;DHT22;4563;54.756;9.400;2023-05-07T06:47:01;12.00;72.60
9057;DHT22;4563;54.756;9.400;2023-05-07T06:49:29;12.00;72.50
9057;DHT22;4563;54.756;9.400;2023-05-07T06:51:56;12.00;72.50
9057;DHT22;4563;54.756;9.400;2023-05-07T06:54:23;12.10;72.40
9057;DHT22;4563;54.756;9.400;2023-05-07T06:56:50;12.10;72.30
9057;DHT22;4563;54.756;9.400;2023-05-07T06:59:17;12.10;72.20
9057;DHT22;4563;54.756;9.400;2023-05-07T07:01:44;12.10;72.10
9057;DHT22;4563;54.756;9.400;2023-05-07T07:04:11;12.10;72.10
9057;DHT22;4563;54.756;9.400;2023-05-07T07:06:39;12.20;72.10
9057;DHT22;4563;54.756;9.400;2023-05-07T07:09:06;12.20;72.10
9057;DHT22;4563;54.756;9.400;2023-05-07T07:11:33;12.20;72.10
9057;DHT22;4563;54.756;9.400;2023-05-07T07:14:00;12.20;72.10
9057;DHT22;4563;54.756;9.400;2023-05-07T07:16:26;12.30;72.20
9057;DHT22;4563;54.756;9.400;2023-05-07T07:18:53;12.30;72.10
9057;DHT22;4563;54.756;9.400;2023-05-07T07:21:20;12.30;72.00
9057;DHT22;4563;54.756;9.400;2023-05-07T07:23:48;12.30;72.00
9057;DHT22;4563;54.756;9.400;2023-05-07T07:26:15;12.40;72.00
9057;DHT22;4563;54.756;9.400;2023-05-07T07:28:42;12.40;72.00
9057;DHT22;4563;54.756;9.400;2023-05-07T07:31:10;12.40;71.90
9057;DHT22;4563;54.756;9.400;2023-05-07T07:33:37;12.40;71.80
9057;DHT22;4563;54.756;9.400;2023-05-07T07:36:05;12.40;71.70
9057;DHT22;4563;54.756;9.400;2023-05-07T07:38:32;12.50;71.80
9057;DHT22;4563;54.756;9.400;2023-05-07T07:41:03;12.50;71.70
9057;DHT22;4563;54.756;9.400;2023-05-07T07:43:31;12.50;71.60
9057;DHT22;4563;54.756;9.400;2023-05-07T07:45:57;12.50;71.60
9057;DHT22;4563;54.756;9.400;2023-05-07T07:48:24;12.50;71.50
9057;DHT22;4563;54.756;9.400;2023-05-07T07:50:53;12.50;71.50
9057;DHT22;4563;54.756;9.400;2023-05-07T07:53:20;12.60;71.50
9057;DHT22;4563;54.756;9.400;2023-05-07T07:55:47;12.60;71.60
9057;DHT22;4563;54.756;9.400;2023-05-07T07:58:15;12.60;71.50
9057;DHT22;4563;54.756;9.400;2023-05-07T08:00:42;12.70;71.60
9057;DHT22;4563;54.756;9.400;2023-05-07T08:03:09;12.70;71.50
9057;DHT22;4563;54.756;9.400;2023-05-07T08:05:42;12.70;71.50
9057;DHT22;4563;54.756;9.400;2023-05-07T08:08:09;12.70;71.30
9057;DHT22;4563;54.756;9.400;2023-05-07T08:10:36;12.80;71.40
9057;DHT22;4563;54.756;9.400;2023-05-07T08:13:05;12.70;71.30
9057;DHT22;4563;54.756;9.400;2023-05-07T08:15:33;12.80;71.40
9057;DHT22;4563;54.756;9.400;2023-05-07T08:18:00;12.80;71.30
9057;DHT22;4563;54.756;9.400;2023-05-07T08:20:28;12.80;71.20
9057;DHT22;4563;54.756;9.400;2023-05-07T08:22:55;12.80;71.10
9057;DHT22;4563;54.756;9.400;2023-05-07T08:25:22;12.90;71.20
9057;DHT22;4563;54.756;9.400;2023-05-07T08:27:48;12.90;71.10
9057;DHT22;4563;54.756;9.400;2023-05-07T08:30:16;12.90;71.10
9057;DHT22;4563;54.756;9.400;2023-05-07T08:32:47;12.90;71.20
9057;DHT22;4563;54.756;9.400;2023-05-07T08:35:16;13.00;71.30
9057;DHT22;4563;54.756;9.400;2023-05-07T08:37:43;13.00;71.20
9057;DHT22;4563;54.756;9.400;2023-05-07T08:40:13;13.00;71.30
9057;DHT22;4563;54.756;9.400;2023-05-07T08:42:41;13.10;71.30
9057;DHT22;4563;54.756;9.400;2023-05-07T08:45:09;13.10;71.60
9057;DHT22;4563;54.756;9.400;2023-05-07T08:47:43;13.20;71.80
9057;DHT22;4563;54.756;9.400;2023-05-07T08:50:12;13.30;71.70
9057;DHT22;4563;54.756;9.400;2023-05-07T08:52:40;13.40;71.70
9057;DHT22;4563;54.756;9.400;2023-05-07T08:55:10;13.40;71.70
9057;DHT22;4563;54.756;9.400;2023-05-07T08:57:37;13.50;71.60
9057;DHT22;4563;54.756;9.400;2023-05-07T09:00:06;13.60;71.80
9057;DHT22;4563;54.756;9.400;2023-05-07T09:02:35;13.70;71.80
9057;DHT22;4563;54.756;9.400;2023-05-07T09:05:02;13.80;71.90
9057;DHT22;4563;54.756;9.400;2023-05-07T09:07:31;13.90;71.90
9057;DHT22;4563;54.756;9.400;2023-05-07T09:09:58;14.00;71.80
9057;DHT22;4563;54.756;9.400;2023-05-07T09:12:25;14.20;71.80
9057;DHT22;4563;54.756;9.400;2023-05-07T09:14:51;14.30;71.40
9057;DHT22;4563;54.756;9.400;2023-05-07T09:17:18;14.50;71.30
9057;DHT22;4563;54.756;9.400;2023-05-07T09:19:45;14.60;71.40
9057;DHT22;4563;54.756;9.400;2023-05-07T09:22:13;14.70;71.20
9057;DHT22;4563;54.756;9.400;2023-05-07T09:24:47;14.90;71.30
9057;DHT22;4563;54.756;9.400;2023-05-07T09:27:14;15.10;71.00
9057;DHT22;4563;54.756;9.400;2023-05-07T09:29:43;15.20;70.50
9057;DHT22;4563;54.756;9.400;2023-05-07T09:32:10;15.40;70.10
9057;DHT22;4563;54.756;9.400;2023-05-07T09:34:37;15.50;69.30
9057;DHT22;4563;54.756;9.400;2023-05-07T09:37:05;15.70;69.30
9057;DHT22;4563;54.756;9.400;2023-05-07T09:39:39;15.80;69.00
9057;DHT22;4563;54.756;9.400;2023-05-07T09:42:07;16.00;68.60
9057;DHT22;4563;54.756;9.400;2023-05-07T09:44:34;16.00;68.10
9057;DHT22;4563;54.756;9.400;2023-05-07T09:47:04;16.10;67.80
9057;DHT22;4563;54.756;9.400;2023-05-07T09:49:34;16.30;67.60
9057;DHT22;4563;54.756;9.400;2023-05-07T09:52:02;16.30;67.50
9057;DHT22;4563;54.756;9.400;2023-05-07T09:54:32;16.40;67.30
9057;DHT22;4563;54.756;9.400;2023-05-07T09:57:01;16.50;67.00
9057;DHT22;4563;54.756;9.400;2023-05-07T09:59:31;16.60;66.80
9057;DHT22;4563;54.756;9.400;2023-05-07T10:02:00;16.70;66.60
9057;DHT22;4563;54.756;9.400;2023-05-07T10:04:26;16.80;66.60
9057;DHT22;4563;54.756;9.400;2023-05-07T10:06:53;16.90;66.40
9057;DHT22;4563;54.756;9.400;2023-05-07T10:09:21;17.00;65.90
9057;DHT22;4563;54.756;9.400;2023-05-07T10:11:49;17.10;65.50
9057;DHT22;4563;54.756;9.400;2023-05-07T10:14:17;17.10;65.20
9057;DHT22;4563;54.756;9.400;2023-05-07T10:16:47;17.20;65.10
9057;DHT22;4563;54.756;9.400;2023-05-07T10:19:14;17.30;64.80
9057;DHT22;4563;54.756;9.400;2023-05-07T10:21:44;17.30;64.50
9057;DHT22;4563;54.756;9.400;2023-05-07T10:24:19;17.40;64.30
9057;DHT22;4563;54.756;9.400;2023-05-07T10:26:51;17.40;64.20
9057;DHT22;4563;54.756;9.400;2023-05-07T10:29:33;17.50;64.10
9057;DHT22;4563;54.756;9.400;2023-05-07T10:32:19;17.50;64.50
9057;DHT22;4563;54.756;9.400;2023-05-07T10:34:54;17.60;64.00
9057;DHT22;4563;54.756;9.400;2023-05-07T10:37:22;17.60;63.60
9057;DHT22;4563;54.756;9.400;2023-05-07T10:39:49;17.60;63.70
9057;DHT22;4563;54.756;9.400;2023-05-07T10:42:16;17.70;63.70
9057;DHT22;4563;54.756;9.400;2023-05-07T10:44:43;17.80;63.70
9057;DHT22;4563;54.756;9.400;2023-05-07T10:47:12;17.80;63.40
9057;DHT22;4563;54.756;9.400;2023-05-07T10:52:39;18.00;63.50
9057;DHT22;4563;54.756;9.400;2023-05-07T10:55:22;18.10;63.30
9057;DHT22;4563;54.756;9.400;2023-05-07T10:57:50;18.20;63.60
9057;DHT22;4563;54.756;9.400;2023-05-07T11:00:41;18.30;63.40
9057;DHT22;4563;54.756;9.400;2023-05-07T11:03:10;18.50;63.80
9057;DHT22;4563;54.756;9.400;2023-05-07T11:05:37;18.60;63.00
9057;DHT22;4563;54.756;9.400;2023-05-07T11:08:05;18.70;62.70
9057;DHT22;4563;54.756;9.400;2023-05-07T11:10:56;18.90;63.00
9057;DHT22;4563;54.756;9.400;2023-05-07T11:13:41;19.00;64.20
9057;DHT22;4563;54.756;9.400;2023-05-07T11:16:17;19.20;63.80
9057;DHT22;4563;54.756;9.400;2023-05-07T11:18:49;19.30;62.90
9057;DHT22;4563;54.756;9.400;2023-05-07T11:21:32;19.50;62.50
9057;DHT22;4563;54.756;9.400;2023-05-07T11:24:00;19.60;63.10
9057;DHT22;4563;54.756;9.400;2023-05-07T11:26:29;19.70;61.90
9057;DHT22;4563;54.756;9.400;2023-05-07T11:28:56;19.80;61.20
9057;DHT22;4563;54.756;9.400;2023-05-07T11:31:27;19.90;60.70
9057;DHT22;4563;54.756;9.400;2023-05-07T11:33:57;19.90;60.50
9057;DHT22;4563;54.756;9.400;2023-05-07T11:36:24;20.00;60.50
9057;DHT22;4563;54.756;9.400;2023-05-07T11:38:52;20.10;60.00
9057;DHT22;4563;54.756;9.400;2023-05-07T11:41:19;20.20;60.00
9057;DHT22;4563;54.756;9.400;2023-05-07T11:43:57;20.20;59.60
9057;DHT22;4563;54.756;9.400;2023-05-07T11:46:26;20.30;59.90
9057;DHT22;4563;54.756;9.400;2023-05-07T11:48:52;20.40;59.50
9057;DHT22;4563;54.756;9.400;2023-05-07T11:51:24;20.50;59.50
9057;DHT22;4563;54.756;9.400;2023-05-07T11:53:53;20.60;59.80
9057;DHT22;4563;54.756;9.400;2023-05-07T11:56:20;20.70;59.60
9057;DHT22;4563;54.756;9.400;2023-05-07T11:58:48;20.80;59.40
9057;DHT22;4563;54.756;9.400;2023-05-07T12:01:15;21.00;59.20
9057;DHT22;4563;54.756;9.400;2023-05-07T12:03:44;21.10;59.00
9057;DHT22;4563;54.756;9.400;2023-05-07T12:06:12;21.20;58.90
9057;DHT22;4563;54.756;9.400;2023-05-07T12:08:41;21.40;58.70
9057;DHT22;4563;54.756;9.400;2023-05-07T12:11:10;21.50;58.70
9057;DHT22;4563;54.756;9.400;2023-05-07T12:13:37;21.60;58.40
9057;DHT22;4563;54.756;9.400;2023-05-07T12:16:06;21.80;58.20
9057;DHT22;4563;54.756;9.400;2023-05-07T12:18:34;21.90;58.10
9057;DHT22;4563;54.756;9.400;2023-05-07T12:21:02;22.00;57.60
9057;DHT22;4563;54.756;9.400;2023-05-07T12:23:29;22.10;57.30
9057;DHT22;4563;54.756;9.400;2023-05-07T12:25:59;22.30;57.10
9057;DHT22;4563;54.756;9.400;2023-05-07T12:28:26;22.40;57.60
9057;DHT22;4563;54.756;9.400;2023-05-07T12:30:53;22.50;56.70
9057;DHT22;4563;54.756;9.400;2023-05-07T12:33:24;22.60;56.60
9057;DHT22;4563;54.756;9.400;2023-05-07T12:35:53;22.80;57.30
9057;DHT22;4563;54.756;9.400;2023-05-07T12:38:20;22.80;56.40
9057;DHT22;4563;54.756;9.400;2023-05-07T12:40:49;22.90;55.60
9057;DHT22;4563;54.756;9.400;2023-05-07T12:43:18;23.00;55.40
9057;DHT22;4563;54.756;9.400;2023-05-07T12:45:46;23.10;55.50
9057;DHT22;4563;54.756;9.400;2023-05-07T12:48:13;23.10;54.70
9057;DHT22;4563;54.756;9.400;2023-05-07T12:50:40;23.10;54.40
9057;DHT22;4563;54.756;9.400;2023-05-07T12:53:10;23.20;54.10
9057;DHT22;4563;54.756;9.400;2023-05-07T12:55:41;23.20;53.80
9057;DHT22;4563;54.756;9.400;2023-05-07T12:58:15;23.30;54.30
9057;DHT22;4563;54.756;9.400;2023-05-07T13:00:44;23.30;54.60
9057;DHT22;4563;54.756;9.400;2023-05-07T13:03:11;23.30;53.90
9057;DHT22;4563;54.756;9.400;2023-05-07T13:05:39;23.30;53.30
9057;DHT22;4563;54.756;9.400;2023-05-07T13:08:06;23.40;53.10
9057;DHT22;4563;54.756;9.400;2023-05-07T13:10:35;23.40;52.90
9057;DHT22;4563;54.756;9.400;2023-05-07T13:13:02;23.40;52.80
9057;DHT22;4563;54.756;9.400;2023-05-07T13:15:29;23.50;52.70
9057;DHT22;4563;54.756;9.400;2023-05-07T13:18:00;23.50;52.30
9057;DHT22;4563;54.756;9.400;2023-05-07T13:20:28;23.60;52.30
9057;DHT22;4563;54.756;9.400;2023-05-07T13:22:54;23.60;52.00
9057;DHT22;4563;54.756;9.400;2023-05-07T13:25:21;23.70;51.70
9057;DHT22;4563;54.756;9.400;2023-05-07T13:27:48;23.70;51.40
9057;DHT22;4563;54.756;9.400;2023-05-07T13:30:15;23.70;51.30
9057;DHT22;4563;54.756;9.400;2023-05-07T13:32:41;23.80;51.00
9057;DHT22;4563;54.756;9.400;2023-05-07T13:35:12;23.80;50.80
9057;DHT22;4563;54.756;9.400;2023-05-07T13:37:41;23.80;50.70
9057;DHT22;4563;54.756;9.400;2023-05-07T13:40:08;23.90;50.80
9057;DHT22;4563;54.756;9.400;2023-05-07T13:42:35;23.90;51.40
9057;DHT22;4563;54.756;9.400;2023-05-07T13:45:03;24.00;50.70
9057;DHT22;4563;54.756;9.400;2023-05-07T13:47:30;24.00;50.50
9057;DHT22;4563;54.756;9.400;2023-05-07T13:49:57;24.00;50.20
9057;DHT22;4563;54.756;9.400;2023-05-07T13:52:25;24.00;50.00
9057;DHT22;4563;54.756;9.400;2023-05-07T13:54:52;24.10;50.00
9057;DHT22;4563;54.756;9.400;2023-05-07T13:57:20;24.10;50.00
9057;DHT22;4563;54.756;9.400;2023-05-07T13:59:47;24.10;49.70
9057;DHT22;4563;54.756;9.400;2023-05-07T14:02:14;24.10;49.70
9057;DHT22;4563;54.756;9.400;2023-05-07T14:04:41;24.10;49.80
9057;DHT22;4563;54.756;9.400;2023-05-07T14:07:08;24.10;49.70
9057;DHT22;4563;54.756;9.400;2023-05-07T14:09:36;24.10;49.30
9057;DHT22;4563;54.756;9.400;2023-05-07T14:12:03;24.10;49.30
9057;DHT22;4563;54.756;9.400;2023-05-07T14:14:30;24.10;49.10
9057;DHT22;4563;54.756;9.400;2023-05-07T14:16:57;24.00;48.90
9057;DHT22;4563;54.756;9.400;2023-05-07T14:19:27;24.00;48.80
9057;DHT22;4563;54.756;9.400;2023-05-07T14:21:54;23.90;49.50
9057;DHT22;4563;54.756;9.400;2023-05-07T14:24:21;23.90;48.90
9057;DHT22;4563;54.756;9.400;2023-05-07T14:26:49;23.80;48.90
9057;DHT22;4563;54.756;9.400;2023-05-07T14:29:16;23.80;48.80
9057;DHT22;4563;54.756;9.400;2023-05-07T14:31:44;23.70;48.70
9057;DHT22;4563;54.756;9.400;2023-05-07T14:34:11;23.60;48.50
9057;DHT22;4563;54.756;9.400;2023-05-07T14:36:38;23.60;48.70
9057;DHT22;4563;54.756;9.400;2023-05-07T14:39:04;23.50;48.60
9057;DHT22;4563;54.756;9.400;2023-05-07T14:41:32;23.40;48.60
9057;DHT22;4563;54.756;9.400;2023-05-07T14:44:00;23.30;48.60
9057;DHT22;4563;54.756;9.400;2023-05-07T14:46:29;23.30;48.60
9057;DHT22;4563;54.756;9.400;2023-05-07T14:48:59;23.20;48.50
9057;DHT22;4563;54.756;9.400;2023-05-07T14:51:34;23.10;48.50
9057;DHT22;4563;54.756;9.400;2023-05-07T14:54:01;23.00;48.40
9057;DHT22;4563;54.756;9.400;2023-05-07T14:56:28;23.00;48.40
9057;DHT22;4563;54.756;9.400;2023-05-07T14:58:55;22.90;48.30
9057;DHT22;4563;54.756;9.400;2023-05-07T15:01:25;22.80;48.40
9057;DHT22;4563;54.756;9.400;2023-05-07T15:03:52;22.70;48.60
9057;DHT22;4563;54.756;9.400;2023-05-07T15:06:19;22.60;48.40
9057;DHT22;4563;54.756;9.400;2023-05-07T15:08:45;22.50;48.50
9057;DHT22;4563;54.756;9.400;2023-05-07T15:11:12;22.40;48.20
9057;DHT22;4563;54.756;9.400;2023-05-07T15:13:39;22.30;48.20
9057;DHT22;4563;54.756;9.400;2023-05-07T15:16:06;22.20;48.20
9057;DHT22;4563;54.756;9.400;2023-05-07T15:18:34;22.20;48.40
9057;DHT22;4563;54.756;9.400;2023-05-07T15:21:01;22.10;48.40
9057;DHT22;4563;54.756;9.400;2023-05-07T15:23:28;22.00;48.30
9057;DHT22;4563;54.756;9.400;2023-05-07T15:25:54;21.90;48.30
9057;DHT22;4563;54.756;9.400;2023-05-07T15:28:21;21.80;48.50
9057;DHT22;4563;54.756;9.400;2023-05-07T15:30:49;21.80;48.70
9057;DHT22;4563;54.756;9.400;2023-05-07T15:33:16;21.70;48.70
9057;DHT22;4563;54.756;9.400;2023-05-07T15:35:44;21.60;48.50
9057;DHT22;4563;54.756;9.400;2023-05-07T15:38:11;21.60;48.70
9057;DHT22;4563;54.756;9.400;2023-05-07T15:40:38;21.50;48.80
9057;DHT22;4563;54.756;9.400;2023-05-07T15:43:10;21.40;48.80
9057;DHT22;4563;54.756;9.400;2023-05-07T15:45:39;21.30;48.80
9057;DHT22;4563;54.756;9.400;2023-05-07T15:48:06;21.30;49.00
9057;DHT22;4563;54.756;9.400;2023-05-07T15:50:33;21.20;48.90
9057;DHT22;4563;54.756;9.400;2023-05-07T15:53:02;21.10;48.90
9057;DHT22;4563;54.756;9.400;2023-05-07T15:55:30;21.10;49.00
9057;DHT22;4563;54.756;9.400;2023-05-07T15:57:57;21.00;49.00
9057;DHT22;4563;54.756;9.400;2023-05-07T16:00:25;20.90;49.00
9057;DHT22;4563;54.756;9.400;2023-05-07T16:02:52;20.90;49.20
9057;DHT22;4563;54.756;9.400;2023-05-07T16:05:19;20.80;49.30
9057;DHT22;4563;54.756;9.400;2023-05-07T16:07:46;20.70;49.20
9057;DHT22;4563;54.756;9.400;2023-05-07T16:10:14;20.60;49.30